METAR Data
IDs: Format: Raw Decoded Include TAF

Data at: 2207 UTC 18 Sep 2018

KJAS 182155Z AUTO 19004KT 10SM CLR 35/23 A2992 RMK AO2 T03480225
KJAS 182135Z AUTO 20003KT 10SM CLR 35/22 A2993 RMK AO2 T03480222
KJAS 182115Z AUTO 20004KT 10SM CLR 35/22 A2992 RMK AO2 T03480222
KJAS 182055Z AUTO 23004KT 10SM CLR 35/23 A2993 RMK AO2 T03490229
KJAS 182035Z AUTO 20003KT 10SM SCT049 SCT060 35/23 A2993 RMK AO2 T03490230
KJAS 182015Z AUTO 27004KT 10SM SCT047 SCT060 35/23 A2994 RMK AO2 T03500230
KJAS 181955Z AUTO 00000KT 10SM SCT060 SCT075 35/22 A2994 RMK AO2 T03490221
KJAS 181935Z AUTO 00000KT 10SM SCT045 BKN060 OVC075 35/22 A2995 RMK AO2 T03480219
KJAS 181915Z AUTO 21003KT 10SM BKN045 BKN050 OVC120 35/23 A2996 RMK AO2 T03460230
KJAS 181855Z AUTO 00000KT 10SM SCT045 SCT080 BKN120 34/23 A2996 RMK AO2 T03420228
KJAS 181835Z AUTO 23003KT 10SM SCT050 SCT070 34/23 A2997 RMK AO2 T03420226
KJAS 181815Z AUTO 00000KT 10SM SCT050 34/23 A2998 RMK AO2 T03410233
KJAS 181755Z AUTO 00000KT 10SM SCT044 34/23 A3000 RMK AO2 T03380227
KJAS 181735Z AUTO 28004KT 10SM SCT042 34/23 A3001 RMK AO2 T03360231
KJAS 181715Z AUTO 00000KT A3001 RMK AO2 PWINO
KJAS 181655Z AUTO 19003KT 10SM BKN038 33/24 A3002 RMK AO2 T03330237
KJAS 181635Z AUTO 00000KT 10SM CLR 33/24 A3002 RMK AO2 T03300237
KJAS 181615Z AUTO 00000KT 10SM CLR 33/24 A3002 RMK AO2 T03280238
KJAS 181555Z AUTO 00000KT 10SM CLR 33/24 A3002 RMK AO2 T03250239
KJAS 181535Z AUTO 00000KT 10SM CLR 32/25 A3002 RMK AO2 T03200245
KJAS 181515Z AUTO 00000KT 10SM CLR 31/25 A3002 RMK AO2 T03130250
KJAS 181455Z AUTO 00000KT 10SM CLR 30/25 A3002 RMK AO2 T03040252
KJAS 181435Z AUTO 00000KT 10SM CLR 29/26 A3002 RMK AO2 T02920255
KJAS 181415Z AUTO 00000KT 10SM CLR 28/26 A3002 RMK AO2 T02770255
KJAS 181355Z AUTO 00000KT 10SM CLR 23/22 A3002 RMK AO2 T02270219
KJAS 181335Z AUTO 00000KT 10SM CLR 20/19 A3002 RMK AO2 T01970194
KJAS 181315Z AUTO 00000KT 7SM CLR 19/19 A3002 RMK AO2 T01920191
KJAS 181255Z AUTO 00000KT 5SM BR CLR 19/19 A3002 RMK AO2 T01870186
KJAS 181235Z AUTO 00000KT 5SM BR CLR 18/18 A3001 RMK AO2 T01820181
KJAS 181215Z AUTO 00000KT 2SM BR CLR 18/18 A3001 RMK AO2 T01830182
KJAS 181155Z AUTO 00000KT 4SM BR CLR 18/18 A3000 RMK AO2 T01830182
KJAS 181135Z AUTO 00000KT 5SM BR CLR 18/18 A3000 RMK AO2 T01830182
KJAS 181115Z AUTO 00000KT 3SM BR CLR 19/18 A3000 RMK AO2 T01850183
KJAS 181055Z AUTO 00000KT 3SM BR CLR 19/18 A2999 RMK AO2 T01850184
KJAS 181035Z AUTO 00000KT 4SM BR CLR 19/19 A2999 RMK AO2 T01850185
KJAS 181015Z AUTO 00000KT 3SM BR CLR 18/18 A2998 RMK AO2 T01840183
KJAS 180955Z AUTO 00000KT 5SM BR CLR 18/18 A2998 RMK AO2 T01830181
KJAS 180935Z AUTO 00000KT 1 3/4SM BR VV007 19/18 A2998 RMK AO2 T01860184
KJAS 180915Z AUTO 00000KT 1 3/4SM BR VV007 19/18 A2998 RMK AO2 T01850183
KJAS 180855Z AUTO 00000KT 5SM BR CLR 19/18 A2998 RMK AO2 T01850184
KJAS 180835Z AUTO 00000KT 3SM BR CLR 19/18 A2998 RMK AO2 T01850183
KJAS 180815Z AUTO 00000KT 3SM BR CLR 19/18 A2998 RMK AO2 T01850182
KJAS 180755Z AUTO 00000KT 3SM BR CLR 19/18 A2998 RMK AO2 T01850182
KJAS 180735Z AUTO 00000KT 4SM BR CLR 19/18 A2998 RMK AO2 T01860183
KJAS 180715Z AUTO 00000KT 4SM BR CLR 19/18 A2998 RMK AO2 T01860183
KJAS 180655Z AUTO 00000KT 5SM BR CLR 19/18 A2998 RMK AO2 T01870184
KJAS 180635Z AUTO 00000KT 5SM BR CLR 19/19 A2998 RMK AO2 T01900186
KJAS 180615Z AUTO 00000KT 5SM BR CLR 19/19 A2998 RMK AO2 T01900186
KJAS 180555Z AUTO 00000KT 7SM CLR 19/19 A2999 RMK AO2 T01930189
KJAS 180535Z AUTO 00000KT 5SM BR CLR 20/19 A2999 RMK AO2 T01970193
KJAS 180515Z AUTO 00000KT 5SM BR CLR 20/20 A2999 RMK AO2 T02040199
KJAS 180455Z AUTO 00000KT 5SM BR CLR 22/21 A2999 RMK AO2 T02170212
KJAS 180435Z AUTO 00000KT 7SM CLR 23/22 A2999 RMK AO2 T02300223
KJAS 180415Z AUTO 00000KT 7SM CLR 25/24 A2999 RMK AO2 T02480240
KJAS 180355Z AUTO 00000KT 7SM CLR 26/25 A2999 RMK AO2 T02560248
KJAS 180335Z AUTO 00000KT 7SM CLR 26/25 A2998 RMK AO2 T02610251
KJAS 180315Z AUTO 00000KT 10SM CLR 27/25 A2998 RMK AO2 T02650253
KJAS 180255Z AUTO 00000KT 10SM CLR 27/25 A2998 RMK AO2 T02670254
KJAS 180235Z AUTO 00000KT 10SM CLR 27/26 A2997 RMK AO2 T02700256
KJAS 180215Z AUTO 00000KT 10SM CLR 27/26 A2997 RMK AO2 T02720256
KJAS 180155Z AUTO 00000KT 10SM CLR 27/26 A2996 RMK AO2 T02740256
KJAS 180135Z AUTO 00000KT 10SM CLR 28/26 A2996 RMK AO2 T02760258
KJAS 180115Z AUTO 00000KT 10SM CLR 28/26 A2995 RMK AO2 T02790259
KJAS 180055Z AUTO 00000KT 10SM CLR 28/26 A2994 RMK AO2 T02840260
KJAS 180035Z AUTO 00000KT 10SM CLR 29/26 A2993 RMK AO2 T02930260
KJAS 180015Z AUTO 00000KT 10SM CLR 31/26 A2993 RMK AO2 T03070258
KJAS 172355Z AUTO 00000KT 10SM CLR 33/25 A2993 RMK AO2 T03270251
KJAS 172335Z AUTO 00000KT 10SM SCT050 34/24 A2993 RMK AO2 T03350242
KJAS 172315Z AUTO 00000KT 10SM SCT048 34/25 A2993 RMK AO2 T03350245
KJAS 172255Z AUTO 20003KT 10SM SCT048 34/24 A2993 RMK AO2 T03360242
KJAS 172235Z AUTO 00000KT 10SM CLR 34/24 A2993 RMK AO2 T03350238
KJAS 172215Z AUTO 00000KT 10SM CLR 34/24 A2993 RMK AO2 T03360238
KJAS 172155Z AUTO 00000KT 10SM CLR 34/24 A2993 RMK AO2 T03390237
KJAS 172135Z AUTO 22003KT 10SM CLR 34/24 A2994 RMK AO2 T03390237
KJAS 172115Z AUTO 20003KT 10SM CLR 34/24 A2994 RMK AO2 T03400236
KJAS 172055Z AUTO 23005KT 10SM CLR 34/23 A2994 RMK AO2 T03400234
KJAS 172035Z AUTO 27004KT 10SM CLR 34/23 A2994 RMK AO2 T03410231
KJAS 172015Z AUTO 20003KT 10SM CLR 34/23 A2995 RMK AO2 T03400234
KJAS 171955Z AUTO 23004KT 10SM SCT043 SCT050 BKN075 34/24 A2996 RMK AO2 T03350236
KJAS 171935Z AUTO 00000KT 10SM SCT043 SCT048 BKN050 34/24 A2996 RMK AO2 T03360240
KJAS 171915Z AUTO 25005KT 10SM SCT041 SCT047 SCT080 34/24 A2997 RMK AO2 T03400238
KJAS 171855Z AUTO 26003KT 10SM BKN039 BKN080 BKN090 34/24 A2998 RMK AO2 T03360237
KJAS 171835Z AUTO 00000KT 10SM SCT039 SCT055 BKN075 33/24 A2998 RMK AO2 T03320238
KJAS 171815Z AUTO 28003KT 10SM SCT036 BKN075 BKN095 33/24 A2999 RMK AO2 T03290240
KJAS 171755Z AUTO 00000KT 10SM SCT036 SCT044 BKN090 33/24 A3000 RMK AO2 T03250240
KJAS 171735Z AUTO 00000KT 10SM BKN034 32/24 A3001 RMK AO2 T03240236
KJAS 171715Z AUTO 00000KT 10SM SCT036 32/24 A3001 RMK AO2 T03200243
KJAS 171655Z AUTO 00000KT 10SM SCT034 BKN040 32/24 A3002 RMK AO2 T03190244
KJAS 171635Z AUTO 00000KT 10SM CLR 32/25 A3002 RMK AO2 T03210248
KJAS 171615Z AUTO 00000KT 10SM CLR 32/25 A3002 RMK AO2 T03150247
KJAS 171555Z AUTO 02003KT 10SM CLR 31/25 A3002 RMK AO2 T03080249
KJAS 171535Z AUTO 00000KT 10SM CLR 30/25 A3002 RMK AO2 T03030251
KJAS 171515Z AUTO 00000KT 10SM CLR 30/25 A3002 RMK AO2 T02960250
KJAS 171455Z AUTO 00000KT 10SM CLR 29/25 A3001 RMK AO2 T02880247
KJAS 171435Z AUTO 00000KT 10SM CLR 28/25 A3001 RMK AO2 T02760247
KJAS 171415Z AUTO 00000KT 10SM CLR 25/24 A3001 RMK AO2 T02520236
KJAS 171355Z AUTO 00000KT 10SM CLR 20/20 A3001 RMK AO2 T02010196
KJAS 171335Z AUTO 00000KT 10SM CLR 18/18 A3000 RMK AO2 T01840182
KJAS 171315Z AUTO 00000KT 10SM CLR 18/18 A2999 RMK AO2 T01820180
KJAS 171255Z AUTO 00000KT 10SM CLR 18/18 A2999 RMK AO2 T01770176
KJAS 171235Z AUTO 00000KT 10SM CLR 17/17 A2998 RMK AO2 T01730172
KJAS 171215Z AUTO 00000KT 7SM CLR 17/17 A2997 RMK AO2 T01720171
KJAS 171155Z AUTO 00000KT 5SM BR CLR 18/17 A2996 RMK AO2 T01750173
KJAS 171135Z AUTO 00000KT 7SM CLR 17/17 A2996 RMK AO2 T01740173
KJAS 171115Z AUTO 00000KT 10SM CLR 18/17 A2995 RMK AO2 T01750173
KJAS 171055Z AUTO 00000KT 10SM CLR 18/17 A2995 RMK AO2 T01750174
KJAS 171035Z AUTO 00000KT 7SM CLR 18/18 A2995 RMK AO2 T01750175
KJAS 171015Z AUTO 00000KT 10SM CLR 18/18 A2994 RMK AO2 T01750175